createdAt,value
2023-02-19T18:59:45.318Z,15.60
2023-02-19T19:03:05.331Z,18.50
2023-02-19T19:05:45.861Z,17.50
2023-02-19T19:12:09.112Z,16.90
2023-02-19T19:14:46.670Z,18.30
2023-02-19T19:17:19.607Z,17.60
2023-02-19T19:20:23.687Z,17.80
2023-02-19T19:23:03.164Z,17.40
2023-02-19T19:25:41.269Z,18.10
2023-02-19T19:28:18.076Z,19.90
2023-02-19T19:32:02.619Z,18.60
2023-02-19T19:34:42.192Z,18.20
2023-02-19T19:37:48.432Z,17.60
2023-02-19T19:41:14.117Z,18.20
2023-02-19T19:43:49.308Z,16.60
2023-02-19T19:46:28.152Z,19.60
2023-02-19T19:49:28.100Z,21.70
2023-02-19T19:55:30.097Z,22.40
2023-02-19T20:05:25.286Z,29.30
2023-02-19T20:08:05.047Z,26.50
2023-02-19T20:10:39.467Z,41.20
2023-02-19T20:13:40.255Z,24.40
2023-02-19T20:16:15.052Z,30.70
2023-02-19T20:18:55.974Z,27.90
2023-02-19T20:24:57.857Z,22.40
2023-02-19T20:27:32.689Z,22.10
2023-02-19T20:30:33.444Z,24.80
2023-02-19T20:33:06.194Z,25.20
2023-02-19T20:36:31.541Z,25.10
2023-02-19T20:39:09.787Z,25.30
2023-02-19T20:41:42.267Z,27.20
2023-02-19T20:44:48.701Z,29.20
2023-02-19T20:47:25.420Z,32.70
2023-02-19T20:49:59.373Z,28.80
2023-02-19T20:52:33.736Z,25.50
2023-02-19T20:55:08.773Z,28.40
2023-02-19T20:57:41.422Z,24.80
2023-02-19T21:00:17.167Z,25.50
2023-02-19T21:02:55.031Z,29.80
2023-02-19T21:05:33.467Z,29.00
2023-02-19T21:08:07.443Z,30.20
2023-02-19T21:11:37.686Z,30.90
2023-02-19T21:14:10.511Z,31.80
2023-02-19T21:16:43.790Z,31.00
2023-02-19T21:19:18.180Z,30.80
2023-02-19T21:21:53.255Z,29.20
2023-02-19T21:24:36.719Z,25.90
2023-02-19T21:27:12.387Z,27.30
2023-02-19T21:29:50.633Z,25.50
2023-02-19T21:33:16.578Z,25.40
2023-02-19T21:35:54.691Z,25.10
2023-02-19T21:38:51.669Z,25.70
2023-02-19T21:41:50.434Z,26.20
2023-02-19T21:44:47.783Z,26.70
2023-02-19T21:47:28.166Z,26.00
2023-02-19T21:50:27.048Z,25.70
2023-02-19T21:56:27.343Z,26.90
2023-02-19T21:59:04.653Z,27.70
2023-02-19T22:02:07.184Z,28.30
2023-02-19T22:04:42.436Z,28.70
2023-02-19T22:07:17.816Z,28.20
2023-02-19T22:09:52.806Z,27.50
2023-02-19T22:12:29.453Z,28.60
2023-02-19T22:15:02.678Z,33.60
2023-02-19T22:17:43.453Z,27.40
2023-02-19T22:21:04.527Z,28.10
2023-02-19T22:23:42.438Z,26.70
2023-02-19T22:26:22.823Z,26.10
2023-02-19T22:29:20.412Z,28.00
2023-02-19T22:31:56.777Z,26.10
2023-02-19T22:35:19.288Z,27.10
2023-02-19T22:37:51.523Z,26.70
2023-02-19T22:40:32.300Z,28.20
2023-02-19T22:43:58.619Z,26.50
2023-02-19T22:46:54.977Z,26.80
2023-02-19T22:49:28.768Z,26.80
2023-02-19T22:55:07.772Z,31.50
2023-02-19T22:58:29.448Z,29.20
2023-02-19T23:01:08.711Z,27.70
2023-02-19T23:07:15.121Z,27.90
2023-02-19T23:10:22.604Z,29.00
2023-02-19T23:13:05.496Z,27.90
2023-02-19T23:15:42.083Z,27.10
2023-02-19T23:18:19.764Z,27.30
2023-02-19T23:21:16.216Z,24.80
2023-02-19T23:24:16.071Z,23.50
2023-02-19T23:27:37.676Z,24.40
2023-02-19T23:30:12.830Z,22.50
2023-02-19T23:32:46.844Z,23.90
2023-02-19T23:36:10.284Z,21.90
2023-02-19T23:39:33.270Z,21.20
2023-02-19T23:45:18.136Z,21.20
2023-02-19T23:47:53.527Z,22.90
2023-02-19T23:50:28.238Z,21.70
2023-02-19T23:53:30.385Z,22.20
2023-02-19T23:56:06.057Z,20.70
2023-02-19T23:59:56.752Z,18.10
